sensor_id;sensor_type;location;lat;lon;timestamp;temperature;humidity
5419;DHT22;2732;52.092;11.556;2022-08-25T00:02:46;19.50;99.90
5419;DHT22;2732;52.092;11.556;2022-08-25T00:07:47;19.50;99.90
5419;DHT22;2732;52.092;11.556;2022-08-25T00:12:47;19.50;99.90
5419;DHT22;2732;52.092;11.556;2022-08-25T00:17:48;19.50;99.90
5419;DHT22;2732;52.092;11.556;2022-08-25T00:22:50;19.50;99.90
5419;DHT22;2732;52.092;11.556;2022-08-25T00:27:50;19.50;99.90
5419;DHT22;2732;52.092;11.556;2022-08-25T00:32:51;19.40;99.90
5419;DHT22;2732;52.092;11.556;2022-08-25T00:37:53;19.40;99.90
5419;DHT22;2732;52.092;11.556;2022-08-25T00:42:55;19.40;99.90
5419;DHT22;2732;52.092;11.556;2022-08-25T00:47:56;19.40;99.90
5419;DHT22;2732;52.092;11.556;2022-08-25T00:53:00;19.40;99.90
5419;DHT22;2732;52.092;11.556;2022-08-25T00:58:07;19.40;99.90
5419;DHT22;2732;52.092;11.556;2022-08-25T01:03:14;19.40;99.90
5419;DHT22;2732;52.092;11.556;2022-08-25T01:08:20;19.30;99.90
5419;DHT22;2732;52.092;11.556;2022-08-25T01:13:29;19.30;99.90
5419;DHT22;2732;52.092;11.556;2022-08-25T01:19:03;19.30;99.90
5419;DHT22;2732;52.092;11.556;2022-08-25T01:24:05;19.30;99.90
5419;DHT22;2732;52.092;11.556;2022-08-25T01:29:08;19.20;99.90
5419;DHT22;2732;52.092;11.556;2022-08-25T01:34:21;19.20;99.90
5419;DHT22;2732;52.092;11.556;2022-08-25T01:39:24;19.10;99.90
5419;DHT22;2732;52.092;11.556;2022-08-25T01:44:25;19.10;99.90
5419;DHT22;2732;52.092;11.556;2022-08-25T01:49:26;19.00;99.90
5419;DHT22;2732;52.092;11.556;2022-08-25T01:54:26;19.00;99.90
5419;DHT22;2732;52.092;11.556;2022-08-25T01:59:27;19.00;99.90
5419;DHT22;2732;52.092;11.556;2022-08-25T02:04:28;19.00;99.90
5419;DHT22;2732;52.092;11.556;2022-08-25T02:09:31;18.90;99.90
5419;DHT22;2732;52.092;11.556;2022-08-25T02:14:32;18.90;99.90
5419;DHT22;2732;52.092;11.556;2022-08-25T02:19:34;18.90;99.90
5419;DHT22;2732;52.092;11.556;2022-08-25T02:24:35;18.80;99.90
5419;DHT22;2732;52.092;11.556;2022-08-25T02:29:37;18.80;99.90
5419;DHT22;2732;52.092;11.556;2022-08-25T02:34:37;18.80;99.90
5419;DHT22;2732;52.092;11.556;2022-08-25T02:39:40;18.80;99.90
5419;DHT22;2732;52.092;11.556;2022-08-25T02:44:41;18.70;99.90
5419;DHT22;2732;52.092;11.556;2022-08-25T02:49:42;18.70;99.90
5419;DHT22;2732;52.092;11.556;2022-08-25T02:54:43;18.60;99.90
5419;DHT22;2732;52.092;11.556;2022-08-25T02:59:44;18.60;99.90
5419;DHT22;2732;52.092;11.556;2022-08-25T03:04:47;18.60;99.90
5419;DHT22;2732;52.092;11.556;2022-08-25T03:09:48;18.60;99.90
5419;DHT22;2732;52.092;11.556;2022-08-25T03:14:48;18.50;99.90
5419;DHT22;2732;52.092;11.556;2022-08-25T03:19:49;18.50;99.90
5419;DHT22;2732;52.092;11.556;2022-08-25T03:24:49;18.50;99.90
5419;DHT22;2732;52.092;11.556;2022-08-25T03:29:50;18.50;99.90
5419;DHT22;2732;52.092;11.556;2022-08-25T03:34:51;18.50;99.90
5419;DHT22;2732;52.092;11.556;2022-08-25T03:39:51;18.50;99.90
5419;DHT22;2732;52.092;11.556;2022-08-25T03:44:52;18.40;99.90
5419;DHT22;2732;52.092;11.556;2022-08-25T03:49:54;18.50;99.90
5419;DHT22;2732;52.092;11.556;2022-08-25T03:54:55;18.40;99.90
5419;DHT22;2732;52.092;11.556;2022-08-25T03:59:56;18.40;99.90
5419;DHT22;2732;52.092;11.556;2022-08-25T04:04:56;18.40;99.90
5419;DHT22;2732;52.092;11.556;2022-08-25T04:09:57;18.40;99.90
5419;DHT22;2732;52.092;11.556;2022-08-25T04:14:57;18.40;99.90
5419;DHT22;2732;52.092;11.556;2022-08-25T04:19:59;18.30;99.90
5419;DHT22;2732;52.092;11.556;2022-08-25T04:25:01;18.30;99.90
5419;DHT22;2732;52.092;11.556;2022-08-25T04:30:04;18.30;99.90
5419;DHT22;2732;52.092;11.556;2022-08-25T04:35:06;18.30;99.90
5419;DHT22;2732;52.092;11.556;2022-08-25T04:40:08;18.30;99.90
5419;DHT22;2732;52.092;11.556;2022-08-25T04:45:09;18.30;99.90
5419;DHT22;2732;52.092;11.556;2022-08-25T04:50:10;18.40;99.90
5419;DHT22;2732;52.092;11.556;2022-08-25T04:55:11;18.40;99.90
5419;DHT22;2732;52.092;11.556;2022-08-25T05:00:12;18.40;99.90
5419;DHT22;2732;52.092;11.556;2022-08-25T05:05:13;18.40;99.90
5419;DHT22;2732;52.092;11.556;2022-08-25T05:10:14;18.40;99.90
5419;DHT22;2732;52.092;11.556;2022-08-25T05:15:14;18.50;99.90
5419;DHT22;2732;52.092;11.556;2022-08-25T05:20:36;18.50;99.90
5419;DHT22;2732;52.092;11.556;2022-08-25T05:25:37;18.50;99.90
5419;DHT22;2732;52.092;11.556;2022-08-25T05:30:39;18.60;99.90
5419;DHT22;2732;52.092;11.556;2022-08-25T05:35:42;18.70;99.90
5419;DHT22;2732;52.092;11.556;2022-08-25T05:40:43;18.70;99.90
5419;DHT22;2732;52.092;11.556;2022-08-25T05:45:44;18.80;99.90
5419;DHT22;2732;52.092;11.556;2022-08-25T05:50:53;18.90;99.90
5419;DHT22;2732;52.092;11.556;2022-08-25T05:55:55;19.00;99.90
5419;DHT22;2732;52.092;11.556;2022-08-25T06:00:58;19.00;99.90
5419;DHT22;2732;52.092;11.556;2022-08-25T06:06:21;19.10;99.90
5419;DHT22;2732;52.092;11.556;2022-08-25T06:11:23;19.20;99.90
5419;DHT22;2732;52.092;11.556;2022-08-25T06:16:24;19.30;99.90
5419;DHT22;2732;52.092;11.556;2022-08-25T06:21:24;19.40;99.90
5419;DHT22;2732;52.092;11.556;2022-08-25T06:26:25;19.50;99.90
5419;DHT22;2732;52.092;11.556;2022-08-25T06:31:26;19.60;99.90
5419;DHT22;2732;52.092;11.556;2022-08-25T06:36:26;19.70;99.90
5419;DHT22;2732;52.092;11.556;2022-08-25T06:41:27;19.90;99.90
5419;DHT22;2732;52.092;11.556;2022-08-25T06:46:29;20.00;99.90
5419;DHT22;2732;52.092;11.556;2022-08-25T06:51:30;20.10;99.90
5419;DHT22;2732;52.092;11.556;2022-08-25T06:56:32;20.20;99.90
5419;DHT22;2732;52.092;11.556;2022-08-25T07:01:34;20.50;99.90
5419;DHT22;2732;52.092;11.556;2022-08-25T07:06:35;20.60;99.90
5419;DHT22;2732;52.092;11.556;2022-08-25T07:11:36;20.70;99.90
5419;DHT22;2732;52.092;11.556;2022-08-25T07:16:39;20.90;99.90
5419;DHT22;2732;52.092;11.556;2022-08-25T07:21:41;21.00;99.90
5419;DHT22;2732;52.092;11.556;2022-08-25T07:26:44;21.10;99.90
5419;DHT22;2732;52.092;11.556;2022-08-25T07:31:46;21.30;99.90
5419;DHT22;2732;52.092;11.556;2022-08-25T07:36:46;21.30;99.90
5419;DHT22;2732;52.092;11.556;2022-08-25T07:41:47;21.50;99.90
5419;DHT22;2732;52.092;11.556;2022-08-25T07:46:49;21.80;99.90
5419;DHT22;2732;52.092;11.556;2022-08-25T07:51:52;22.20;99.90
5419;DHT22;2732;52.092;11.556;2022-08-25T07:56:53;22.60;99.90
5419;DHT22;2732;52.092;11.556;2022-08-25T08:01:54;23.00;99.90
5419;DHT22;2732;52.092;11.556;2022-08-25T08:06:55;23.40;99.90
5419;DHT22;2732;52.092;11.556;2022-08-25T08:11:56;23.70;99.90
5419;DHT22;2732;52.092;11.556;2022-08-25T08:16:57;24.10;99.90
5419;DHT22;2732;52.092;11.556;2022-08-25T08:21:57;24.50;99.90
5419;DHT22;2732;52.092;11.556;2022-08-25T08:26:58;24.90;99.90
5419;DHT22;2732;52.092;11.556;2022-08-25T08:31:58;25.20;99.90
5419;DHT22;2732;52.092;11.556;2022-08-25T08:36:59;25.50;99.90
5419;DHT22;2732;52.092;11.556;2022-08-25T08:42:36;25.90;99.90
5419;DHT22;2732;52.092;11.556;2022-08-25T08:48:21;26.30;99.90
5419;DHT22;2732;52.092;11.556;2022-08-25T08:53:39;26.60;99.90
5419;DHT22;2732;52.092;11.556;2022-08-25T08:59:09;26.90;99.90
5419;DHT22;2732;52.092;11.556;2022-08-25T09:04:36;27.20;99.90
5419;DHT22;2732;52.092;11.556;2022-08-25T09:09:41;27.60;99.90
5419;DHT22;2732;52.092;11.556;2022-08-25T09:15:06;28.00;99.90
5419;DHT22;2732;52.092;11.556;2022-08-25T09:25:39;28.80;99.90
5419;DHT22;2732;52.092;11.556;2022-08-25T09:31:21;29.20;99.90
5419;DHT22;2732;52.092;11.556;2022-08-25T09:36:24;29.20;99.90
5419;DHT22;2732;52.092;11.556;2022-08-25T09:42:03;29.70;99.90
5419;DHT22;2732;52.092;11.556;2022-08-25T09:52:31;28.90;99.90
5419;DHT22;2732;52.092;11.556;2022-08-25T10:08:36;29.80;99.90
5419;DHT22;2732;52.092;11.556;2022-08-25T10:13:48;30.40;99.10
5419;DHT22;2732;52.092;11.556;2022-08-25T10:19:05;30.20;98.60
5419;DHT22;2732;52.092;11.556;2022-08-25T10:24:08;29.80;98.70
5419;DHT22;2732;52.092;11.556;2022-08-25T10:35:08;29.50;98.90
5419;DHT22;2732;52.092;11.556;2022-08-25T10:40:14;29.50;98.80
5419;DHT22;2732;52.092;11.556;2022-08-25T10:45:25;29.40;98.70
5419;DHT22;2732;52.092;11.556;2022-08-25T10:51:05;29.50;98.70
5419;DHT22;2732;52.092;11.556;2022-08-25T10:56:15;29.40;98.90
5419;DHT22;2732;52.092;11.556;2022-08-25T11:01:39;29.60;98.70
5419;DHT22;2732;52.092;11.556;2022-08-25T11:07:07;29.60;98.20
5419;DHT22;2732;52.092;11.556;2022-08-25T11:12:15;29.50;98.60
5419;DHT22;2732;52.092;11.556;2022-08-25T11:17:33;30.20;97.90
5419;DHT22;2732;52.092;11.556;2022-08-25T11:23:04;30.40;97.40
5419;DHT22;2732;52.092;11.556;2022-08-25T11:28:28;31.10;96.40
5419;DHT22;2732;52.092;11.556;2022-08-25T11:33:31;30.80;96.40
5419;DHT22;2732;52.092;11.556;2022-08-25T11:49:52;31.10;95.70
5419;DHT22;2732;52.092;11.556;2022-08-25T11:55:05;30.70;96.10
5419;DHT22;2732;52.092;11.556;2022-08-25T12:00:40;31.50;95.30
5419;DHT22;2732;52.092;11.556;2022-08-25T12:06:12;31.60;94.50
5419;DHT22;2732;52.092;11.556;2022-08-25T12:27:03;34.70;89.60
5419;DHT22;2732;52.092;11.556;2022-08-25T12:32:17;35.20;88.10
5419;DHT22;2732;52.092;11.556;2022-08-25T12:37:26;34.50;86.90
5419;DHT22;2732;52.092;11.556;2022-08-25T12:42:37;34.30;87.30
5419;DHT22;2732;52.092;11.556;2022-08-25T12:47:41;34.30;86.60
5419;DHT22;2732;52.092;11.556;2022-08-25T12:52:44;34.00;86.80
5419;DHT22;2732;52.092;11.556;2022-08-25T12:57:51;33.50;87.30
5419;DHT22;2732;52.092;11.556;2022-08-25T13:19:26;32.60;87.60
5419;DHT22;2732;52.092;11.556;2022-08-25T13:24:29;32.90;87.50
5419;DHT22;2732;52.092;11.556;2022-08-25T13:29:35;32.90;86.40
5419;DHT22;2732;52.092;11.556;2022-08-25T13:34:39;32.30;87.60
5419;DHT22;2732;52.092;11.556;2022-08-25T13:39:40;31.80;88.90
5419;DHT22;2732;52.092;11.556;2022-08-25T13:44:41;32.10;89.30
5419;DHT22;2732;52.092;11.556;2022-08-25T13:49:45;32.90;88.40
5419;DHT22;2732;52.092;11.556;2022-08-25T13:54:48;33.40;87.10
5419;DHT22;2732;52.092;11.556;2022-08-25T13:59:51;33.80;85.80
5419;DHT22;2732;52.092;11.556;2022-08-25T14:04:55;34.00;85.20
5419;DHT22;2732;52.092;11.556;2022-08-25T14:09:58;34.30;84.60
5419;DHT22;2732;52.092;11.556;2022-08-25T14:20:24;34.60;83.80
5419;DHT22;2732;52.092;11.556;2022-08-25T14:25:28;34.70;81.60
5419;DHT22;2732;52.092;11.556;2022-08-25T14:30:33;34.50;82.10
5419;DHT22;2732;52.092;11.556;2022-08-25T14:35:35;34.50;81.80
5419;DHT22;2732;52.092;11.556;2022-08-25T14:40:37;34.30;81.60
5419;DHT22;2732;52.092;11.556;2022-08-25T14:45:41;34.40;81.80
5419;DHT22;2732;52.092;11.556;2022-08-25T14:50:44;34.50;81.20
5419;DHT22;2732;52.092;11.556;2022-08-25T14:55:45;34.50;80.80
5419;DHT22;2732;52.092;11.556;2022-08-25T15:00:46;34.50;80.50
5419;DHT22;2732;52.092;11.556;2022-08-25T15:05:47;34.50;79.70
5419;DHT22;2732;52.092;11.556;2022-08-25T15:10:48;34.60;79.70
5419;DHT22;2732;52.092;11.556;2022-08-25T15:15:49;34.70;80.20
5419;DHT22;2732;52.092;11.556;2022-08-25T15:20:49;34.60;79.40
5419;DHT22;2732;52.092;11.556;2022-08-25T15:25:53;34.50;79.40
5419;DHT22;2732;52.092;11.556;2022-08-25T15:30:54;34.30;80.80
5419;DHT22;2732;52.092;11.556;2022-08-25T15:35:55;33.90;80.90
5419;DHT22;2732;52.092;11.556;2022-08-25T15:40:55;33.60;80.90
5419;DHT22;2732;52.092;11.556;2022-08-25T15:45:56;33.30;81.10
5419;DHT22;2732;52.092;11.556;2022-08-25T15:50:57;33.10;81.00
5419;DHT22;2732;52.092;11.556;2022-08-25T15:56:00;33.10;81.50
5419;DHT22;2732;52.092;11.556;2022-08-25T16:01:01;33.00;81.70
5419;DHT22;2732;52.092;11.556;2022-08-25T16:06:02;33.00;82.80
5419;DHT22;2732;52.092;11.556;2022-08-25T16:11:05;33.00;83.10
5419;DHT22;2732;52.092;11.556;2022-08-25T16:16:16;32.90;83.10
5419;DHT22;2732;52.092;11.556;2022-08-25T16:21:20;32.70;83.20
5419;DHT22;2732;52.092;11.556;2022-08-25T16:26:26;32.40;82.70
5419;DHT22;2732;52.092;11.556;2022-08-25T16:31:27;32.40;82.40
5419;DHT22;2732;52.092;11.556;2022-08-25T16:36:28;32.20;81.90
5419;DHT22;2732;52.092;11.556;2022-08-25T16:41:30;32.10;81.50
5419;DHT22;2732;52.092;11.556;2022-08-25T16:46:34;31.90;82.50
5419;DHT22;2732;52.092;11.556;2022-08-25T16:51:37;31.60;83.50
5419;DHT22;2732;52.092;11.556;2022-08-25T16:56:38;31.40;84.50
5419;DHT22;2732;52.092;11.556;2022-08-25T17:01:42;31.10;85.10
5419;DHT22;2732;52.092;11.556;2022-08-25T17:06:42;30.90;85.70
5419;DHT22;2732;52.092;11.556;2022-08-25T17:11:46;30.60;86.30
5419;DHT22;2732;52.092;11.556;2022-08-25T17:16:47;30.40;87.20
5419;DHT22;2732;52.092;11.556;2022-08-25T17:21:48;30.20;87.80
5419;DHT22;2732;52.092;11.556;2022-08-25T17:26:48;30.00;88.40
5419;DHT22;2732;52.092;11.556;2022-08-25T17:31:49;29.80;89.00
5419;DHT22;2732;52.092;11.556;2022-08-25T17:36:51;29.60;89.40
5419;DHT22;2732;52.092;11.556;2022-08-25T17:41:53;29.40;90.00
5419;DHT22;2732;52.092;11.556;2022-08-25T17:46:54;29.20;90.30
5419;DHT22;2732;52.092;11.556;2022-08-25T17:51:54;29.00;90.60
5419;DHT22;2732;52.092;11.556;2022-08-25T17:56:55;28.80;90.70
5419;DHT22;2732;52.092;11.556;2022-08-25T18:01:56;28.60;90.90
5419;DHT22;2732;52.092;11.556;2022-08-25T18:06:56;28.50;91.20
5419;DHT22;2732;52.092;11.556;2022-08-25T18:11:57;28.30;91.80
5419;DHT22;2732;52.092;11.556;2022-08-25T18:16:58;28.10;91.80
5419;DHT22;2732;52.092;11.556;2022-08-25T18:22:00;27.90;92.10
5419;DHT22;2732;52.092;11.556;2022-08-25T18:27:05;27.70;92.30
5419;DHT22;2732;52.092;11.556;2022-08-25T18:32:06;27.50;92.60
5419;DHT22;2732;52.092;11.556;2022-08-25T18:37:06;27.40;93.00
5419;DHT22;2732;52.092;11.556;2022-08-25T18:42:26;27.20;93.10
5419;DHT22;2732;52.092;11.556;2022-08-25T18:47:28;27.00;93.50
5419;DHT22;2732;52.092;11.556;2022-08-25T18:52:28;26.90;93.70
5419;DHT22;2732;52.092;11.556;2022-08-25T18:57:29;26.80;94.00
5419;DHT22;2732;52.092;11.556;2022-08-25T19:02:29;26.60;94.20
5419;DHT22;2732;52.092;11.556;2022-08-25T19:07:30;26.50;94.30
5419;DHT22;2732;52.092;11.556;2022-08-25T19:12:31;26.40;94.60
5419;DHT22;2732;52.092;11.556;2022-08-25T19:17:32;26.30;94.90
5419;DHT22;2732;52.092;11.556;2022-08-25T19:22:33;26.20;95.00
5419;DHT22;2732;52.092;11.556;2022-08-25T19:27:35;26.00;95.30
5419;DHT22;2732;52.092;11.556;2022-08-25T19:32:37;25.90;95.50
5419;DHT22;2732;52.092;11.556;2022-08-25T19:37:41;25.80;95.80
5419;DHT22;2732;52.092;11.556;2022-08-25T19:42:42;25.70;96.00
5419;DHT22;2732;52.092;11.556;2022-08-25T19:47:43;25.60;96.10
5419;DHT22;2732;52.092;11.556;2022-08-25T19:52:45;25.50;96.30
5419;DHT22;2732;52.092;11.556;2022-08-25T19:57:46;25.40;96.60
5419;DHT22;2732;52.092;11.556;2022-08-25T20:02:47;25.30;96.80
5419;DHT22;2732;52.092;11.556;2022-08-25T20:07:48;25.20;97.00
5419;DHT22;2732;52.092;11.556;2022-08-25T20:12:49;25.10;97.20
5419;DHT22;2732;52.092;11.556;2022-08-25T20:17:51;25.00;97.40
5419;DHT22;2732;52.092;11.556;2022-08-25T20:22:53;25.00;97.70
5419;DHT22;2732;52.092;11.556;2022-08-25T20:28:14;24.90;97.90
5419;DHT22;2732;52.092;11.556;2022-08-25T20:33:14;24.80;98.10
5419;DHT22;2732;52.092;11.556;2022-08-25T20:38:15;24.70;98.30
5419;DHT22;2732;52.092;11.556;2022-08-25T20:43:15;24.70;98.50
5419;DHT22;2732;52.092;11.556;2022-08-25T20:48:17;24.60;98.80
5419;DHT22;2732;52.092;11.556;2022-08-25T20:53:17;24.50;99.10
5419;DHT22;2732;52.092;11.556;2022-08-25T20:58:18;24.50;99.40
5419;DHT22;2732;52.092;11.556;2022-08-25T21:03:18;24.40;99.60
5419;DHT22;2732;52.092;11.556;2022-08-25T21:08:19;24.30;99.70
5419;DHT22;2732;52.092;11.556;2022-08-25T21:13:20;24.30;99.90
5419;DHT22;2732;52.092;11.556;2022-08-25T21:18:20;24.20;99.90
5419;DHT22;2732;52.092;11.556;2022-08-25T21:23:21;24.10;99.90
5419;DHT22;2732;52.092;11.556;2022-08-25T21:28:22;24.00;99.90
5419;DHT22;2732;52.092;11.556;2022-08-25T21:33:22;23.90;99.90
5419;DHT22;2732;52.092;11.556;2022-08-25T21:38:23;23.90;99.90
5419;DHT22;2732;52.092;11.556;2022-08-25T21:43:24;23.80;99.90
5419;DHT22;2732;52.092;11.556;2022-08-25T21:48:25;23.80;99.90
5419;DHT22;2732;52.092;11.556;2022-08-25T21:53:25;23.70;99.90
5419;DHT22;2732;52.092;11.556;2022-08-25T21:58:26;23.60;99.90
5419;DHT22;2732;52.092;11.556;2022-08-25T22:03:27;23.50;99.90
5419;DHT22;2732;52.092;11.556;2022-08-25T22:08:27;23.50;99.90
5419;DHT22;2732;52.092;11.556;2022-08-25T22:13:29;23.40;99.90
5419;DHT22;2732;52.092;11.556;2022-08-25T22:18:31;23.30;99.90
5419;DHT22;2732;52.092;11.556;2022-08-25T22:23:31;23.20;99.90
5419;DHT22;2732;52.092;11.556;2022-08-25T22:28:32;23.10;99.90
5419;DHT22;2732;52.092;11.556;2022-08-25T22:33:33;23.00;99.90
5419;DHT22;2732;52.092;11.556;2022-08-25T22:38:34;22.80;99.90
5419;DHT22;2732;52.092;11.556;2022-08-25T22:43:34;22.80;99.90
5419;DHT22;2732;52.092;11.556;2022-08-25T22:48:35;22.70;99.90
5419;DHT22;2732;52.092;11.556;2022-08-25T22:53:39;22.60;99.90
5419;DHT22;2732;52.092;11.556;2022-08-25T22:58:40;22.50;99.90
5419;DHT22;2732;52.092;11.556;2022-08-25T23:03:41;22.40;99.90
5419;DHT22;2732;52.092;11.556;2022-08-25T23:08:43;22.30;99.90
5419;DHT22;2732;52.092;11.556;2022-08-25T23:13:45;22.20;99.90
5419;DHT22;2732;52.092;11.556;2022-08-25T23:18:45;22.10;99.90
5419;DHT22;2732;52.092;11.556;2022-08-25T23:23:46;22.00;99.90
5419;DHT22;2732;52.092;11.556;2022-08-25T23:28:48;22.00;99.90
5419;DHT22;2732;52.092;11.556;2022-08-25T23:33:49;21.80;99.90
5419;DHT22;2732;52.092;11.556;2022-08-25T23:38:50;21.80;99.90
5419;DHT22;2732;52.092;11.556;2022-08-25T23:43:52;21.70;99.90
5419;DHT22;2732;52.092;11.556;2022-08-25T23:48:54;21.60;99.90
5419;DHT22;2732;52.092;11.556;2022-08-25T23:53:55;21.50;99.90
5419;DHT22;2732;52.092;11.556;2022-08-25T23:58:57;21.40;99.90
